createdAt,value
2022-09-18T00:01:46.339Z,4.75
2022-09-18T00:04:16.274Z,5.00
2022-09-18T00:06:46.569Z,5.75
2022-09-18T00:09:16.941Z,6.25
2022-09-18T00:11:49.159Z,7.00
2022-09-18T00:14:21.537Z,4.25
2022-09-18T00:16:51.866Z,5.25
2022-09-18T00:19:21.329Z,3.25
2022-09-18T00:21:51.645Z,4.25
2022-09-18T00:24:21.065Z,2.75
2022-09-18T00:26:50.659Z,1.50
2022-09-18T00:29:20.157Z,7.50
2022-09-18T00:31:50.548Z,5.00
2022-09-18T00:34:20.952Z,3.50
2022-09-18T00:36:51.761Z,3.00
2022-09-18T00:39:21.044Z,2.75
2022-09-18T00:41:50.936Z,5.00
2022-09-18T00:44:38.473Z,5.00
2022-09-18T00:47:13.839Z,5.75
2022-09-18T00:49:44.019Z,6.00
2022-09-18T00:52:15.531Z,3.50
2022-09-18T00:54:47.655Z,5.00
2022-09-18T00:57:37.021Z,3.00
2022-09-18T01:00:12.679Z,3.00
2022-09-18T01:02:48.469Z,2.75
2022-09-18T01:05:21.133Z,2.25
2022-09-18T01:07:56.657Z,3.00
2022-09-18T01:10:33.907Z,4.50
2022-09-18T01:13:26.093Z,2.00
2022-09-18T01:16:04.037Z,4.75
2022-09-18T01:18:33.702Z,3.25
2022-09-18T01:21:41.102Z,5.00
2022-09-18T01:24:29.536Z,3.75
2022-09-18T01:27:10.391Z,4.50
2022-09-18T01:29:55.050Z,5.00
2022-09-18T01:32:36.087Z,2.00
2022-09-18T01:35:39.442Z,1.75
2022-09-18T01:38:08.435Z,1.00
2022-09-18T01:40:47.710Z,5.25
2022-09-18T01:43:19.759Z,2.00
2022-09-18T01:45:51.159Z,1.25
2022-09-18T01:48:34.281Z,0.50
2022-09-18T01:51:14.096Z,1.25
2022-09-18T01:53:47.189Z,0.00
2022-09-18T01:56:24.133Z,0.75
2022-09-18T01:58:55.860Z,1.25
2022-09-18T02:01:32.909Z,1.00
2022-09-18T02:04:09.369Z,1.50
2022-09-18T02:06:43.638Z,1.00
2022-09-18T02:09:14.005Z,0.75
2022-09-18T02:11:45.979Z,1.00
2022-09-18T02:14:22.303Z,4.75
2022-09-18T02:17:05.117Z,0.00
2022-09-18T02:19:47.206Z,0.00
2022-09-18T02:22:20.068Z,0.00
2022-09-18T02:24:51.965Z,1.00
2022-09-18T02:27:21.584Z,0.50
2022-09-18T02:29:52.703Z,0.00
2022-09-18T02:32:24.961Z,0.00
2022-09-18T02:34:56.515Z,1.00
2022-09-18T02:37:28.942Z,2.00
2022-09-18T02:40:13.110Z,0.00
2022-09-18T02:42:43.797Z,0.00
2022-09-18T02:45:13.535Z,0.00
2022-09-18T02:48:05.905Z,1.00
2022-09-18T02:50:47.866Z,0.00
2022-09-18T02:53:32.316Z,0.00
2022-09-18T02:56:03.782Z,0.00
2022-09-18T02:58:38.474Z,1.00
2022-09-18T03:01:08.594Z,0.00
2022-09-18T03:03:39.924Z,0.00
2022-09-18T03:06:12.006Z,0.00
2022-09-18T03:08:42.541Z,0.25
2022-09-18T03:11:14.984Z,0.00
2022-09-18T03:13:46.546Z,1.00
2022-09-18T03:16:16.284Z,0.00
2022-09-18T03:18:45.510Z,0.00
2022-09-18T03:21:14.848Z,0.50
2022-09-18T03:23:45.671Z,0.00
2022-09-18T03:26:24.317Z,0.00
2022-09-18T03:28:53.594Z,0.00
2022-09-18T03:31:23.710Z,0.00
2022-09-18T03:33:53.154Z,0.00
2022-09-18T03:36:23.836Z,0.00
2022-09-18T03:38:55.000Z,0.00
2022-09-18T03:41:25.418Z,0.00
2022-09-18T03:43:54.793Z,0.25
2022-09-18T03:46:25.417Z,0.00
2022-09-18T03:48:59.462Z,0.00
2022-09-18T03:51:32.124Z,0.00
2022-09-18T03:54:01.831Z,0.00
2022-09-18T03:56:44.707Z,0.50
2022-09-18T03:59:32.082Z,0.00
2022-09-18T04:02:14.176Z,0.00
2022-09-18T04:05:16.710Z,0.75
2022-09-18T04:08:09.432Z,0.50
2022-09-18T04:11:01.762Z,0.75
2022-09-18T04:13:31.302Z,0.25
2022-09-18T04:16:06.094Z,0.00
2022-09-18T04:18:36.412Z,0.00
2022-09-18T04:21:07.671Z,0.00
2022-09-18T04:23:37.339Z,0.00
2022-09-18T04:26:10.791Z,0.00
2022-09-18T04:28:48.609Z,2.00
2022-09-18T04:31:18.445Z,0.00
2022-09-18T04:33:49.779Z,0.00
2022-09-18T04:36:23.458Z,0.00
2022-09-18T04:38:57.140Z,0.00
2022-09-18T04:41:26.640Z,0.00
2022-09-18T04:43:58.320Z,0.00
2022-09-18T04:46:27.804Z,0.00
2022-09-18T04:48:57.761Z,0.00
2022-09-18T04:51:29.252Z,0.00
2022-09-18T04:53:58.980Z,0.00
2022-09-18T04:56:29.449Z,0.00
2022-09-18T04:59:01.935Z,0.00
2022-09-18T05:01:39.191Z,0.00
2022-09-18T05:04:14.299Z,0.00
2022-09-18T05:06:55.845Z,0.00
2022-09-18T05:09:25.515Z,0.00
2022-09-18T05:11:56.102Z,3.00
2022-09-18T05:14:27.107Z,0.00
2022-09-18T05:17:01.860Z,0.00
2022-09-18T05:19:43.699Z,0.00
2022-09-18T05:22:23.336Z,0.00
2022-09-18T05:24:54.395Z,0.00
2022-09-18T05:27:26.913Z,0.00
2022-09-18T05:29:58.194Z,0.00
2022-09-18T05:32:46.039Z,0.00
2022-09-18T05:35:15.994Z,0.00
2022-09-18T05:37:45.570Z,0.00
2022-09-18T05:40:15.282Z,0.00
2022-09-18T05:42:51.948Z,0.00
2022-09-18T05:45:23.472Z,0.00
2022-09-18T05:47:57.548Z,0.00
2022-09-18T05:50:29.736Z,0.00
2022-09-18T05:53:04.026Z,0.50
2022-09-18T05:55:45.615Z,0.00
2022-09-18T05:58:17.360Z,0.00
2022-09-18T06:00:48.545Z,0.00
2022-09-18T06:03:26.287Z,0.00
2022-09-18T06:05:56.690Z,0.00
2022-09-18T06:08:26.488Z,0.00
2022-09-18T06:10:56.803Z,0.00
2022-09-18T06:13:29.724Z,0.00
2022-09-18T06:16:00.655Z,0.00
2022-09-18T06:18:42.496Z,0.00
2022-09-18T06:21:16.303Z,0.00
2022-09-18T06:23:46.908Z,0.00
2022-09-18T06:26:26.466Z,0.00
2022-09-18T06:28:56.431Z,0.00
2022-09-18T06:31:26.324Z,0.00
2022-09-18T06:34:07.496Z,0.00
2022-09-18T06:36:37.867Z,0.00
2022-09-18T06:39:33.441Z,0.00
2022-09-18T06:42:04.407Z,0.00
2022-09-18T06:44:52.600Z,0.75
2022-09-18T06:47:23.806Z,0.00
2022-09-18T06:49:53.514Z,0.00
2022-09-18T06:52:23.881Z,0.00
2022-09-18T06:54:57.839Z,1.00
2022-09-18T06:57:34.662Z,0.00
2022-09-18T07:00:06.380Z,0.00
2022-09-18T07:02:41.442Z,0.25
2022-09-18T07:05:31.011Z,0.00
2022-09-18T07:08:02.734Z,0.00
2022-09-18T07:10:39.335Z,0.50
2022-09-18T07:13:10.137Z,0.00
2022-09-18T07:15:52.403Z,0.00
2022-09-18T07:18:22.432Z,0.00
2022-09-18T07:20:51.921Z,0.00
2022-09-18T07:23:34.704Z,0.00
2022-09-18T07:26:06.135Z,0.00
2022-09-18T07:28:36.873Z,0.00
2022-09-18T07:31:27.309Z,0.00
2022-09-18T07:33:59.531Z,0.00
2022-09-18T07:36:32.421Z,0.00
2022-09-18T07:39:02.643Z,0.00
2022-09-18T07:41:42.067Z,0.00
2022-09-18T07:44:13.297Z,0.00
2022-09-18T07:46:43.934Z,0.00
2022-09-18T07:49:14.169Z,0.00
2022-09-18T07:51:44.258Z,0.00
2022-09-18T07:54:15.202Z,0.00
2022-09-18T07:57:11.482Z,0.00
2022-09-18T07:59:55.350Z,0.00
2022-09-18T08:02:25.834Z,0.00
2022-09-18T08:04:55.911Z,0.00
2022-09-18T08:07:46.405Z,0.00
2022-09-18T08:10:38.916Z,0.00
2022-09-18T08:13:31.263Z,0.00
2022-09-18T08:16:12.601Z,0.00
2022-09-18T08:19:10.945Z,0.00
2022-09-18T08:21:50.171Z,0.00
2022-09-18T08:24:20.267Z,0.00
2022-09-18T08:26:49.760Z,0.00
2022-09-18T08:29:21.993Z,0.00
2022-09-18T08:32:09.045Z,0.00
2022-09-18T08:34:40.375Z,0.00
2022-09-18T08:37:10.010Z,0.00
2022-09-18T08:39:58.579Z,0.00
2022-09-18T08:42:56.804Z,0.00
2022-09-18T08:45:42.246Z,0.00
2022-09-18T08:48:18.740Z,0.00
2022-09-18T08:51:05.232Z,0.00
2022-09-18T08:53:41.620Z,0.00
2022-09-18T08:56:30.761Z,0.50
2022-09-18T08:59:37.455Z,0.00
2022-09-18T09:02:26.934Z,0.00
2022-09-18T09:05:00.398Z,0.00
2022-09-18T09:07:33.082Z,1.00
2022-09-18T09:10:28.659Z,0.00
2022-09-18T09:13:14.548Z,0.00
2022-09-18T09:15:56.865Z,0.00
2022-09-18T09:18:33.516Z,0.00
2022-09-18T09:21:36.402Z,1.00
2022-09-18T09:24:26.553Z,0.00
2022-09-18T09:27:18.676Z,0.00
2022-09-18T09:30:16.146Z,0.25
2022-09-18T09:33:09.017Z,0.75
2022-09-18T09:35:48.155Z,0.00
2022-09-18T09:38:19.960Z,1.50
2022-09-18T09:40:51.843Z,0.75
2022-09-18T09:43:26.700Z,0.00
2022-09-18T09:46:00.450Z,0.00
2022-09-18T09:48:36.927Z,0.25
2022-09-18T09:51:07.341Z,1.00
2022-09-18T09:53:37.774Z,1.50
2022-09-18T09:56:16.777Z,3.50
2022-09-18T09:58:52.311Z,3.00
2022-09-18T10:01:28.760Z,7.25
2022-09-18T10:04:28.252Z,5.50
2022-09-18T10:07:24.964Z,10.50
2022-09-18T10:09:55.711Z,16.00
2022-09-18T10:12:25.588Z,13.75
2022-09-18T10:15:05.334Z,15.50
2022-09-18T10:17:38.098Z,13.50
2022-09-18T10:20:08.387Z,16.25
2022-09-18T10:22:38.929Z,16.00
2022-09-18T10:25:17.215Z,15.00
2022-09-18T10:27:46.823Z,12.75
2022-09-18T10:30:16.572Z,16.25
2022-09-18T10:32:54.257Z,27.25
2022-09-18T10:35:33.375Z,31.00
2022-09-18T10:38:03.957Z,26.50
2022-09-18T10:40:41.003Z,22.00
2022-09-18T10:43:21.262Z,20.75
2022-09-18T10:45:57.098Z,19.50
2022-09-18T10:48:32.128Z,15.50
2022-09-18T10:51:02.860Z,13.00
2022-09-18T10:53:44.107Z,14.25
2022-09-18T10:56:30.627Z,18.25
2022-09-18T10:59:32.277Z,13.00
2022-09-18T11:02:03.698Z,12.25
2022-09-18T11:04:35.750Z,14.50
2022-09-18T11:07:09.093Z,14.50
2022-09-18T11:09:41.116Z,12.00
2022-09-18T11:12:17.984Z,9.25
2022-09-18T11:14:52.340Z,11.75
2022-09-18T11:17:26.131Z,17.25
2022-09-18T11:20:00.187Z,15.00
2022-09-18T11:22:44.430Z,15.00
2022-09-18T11:25:33.769Z,24.75
2022-09-18T11:28:42.722Z,25.75
2022-09-18T11:31:21.126Z,27.00
2022-09-18T11:34:00.715Z,30.00
2022-09-18T11:36:42.374Z,40.25
2022-09-18T11:39:18.664Z,32.00
2022-09-18T11:41:51.983Z,28.50
2022-09-18T11:44:40.133Z,25.00
2022-09-18T11:47:12.976Z,16.50
2022-09-18T11:49:46.413Z,15.25
2022-09-18T11:52:41.122Z,12.75
2022-09-18T11:55:16.410Z,13.25
2022-09-18T11:57:50.280Z,25.75
2022-09-18T12:00:23.330Z,13.75
2022-09-18T12:03:18.316Z,9.75
2022-09-18T12:05:54.667Z,8.25
2022-09-18T12:08:40.779Z,6.50
2022-09-18T12:11:29.982Z,5.50
2022-09-18T12:14:14.170Z,2.75
2022-09-18T12:17:00.252Z,7.00
2022-09-18T12:19:33.639Z,2.25
2022-09-18T12:22:15.507Z,4.00
2022-09-18T12:24:46.403Z,4.00
2022-09-18T12:27:27.630Z,4.25
2022-09-18T12:30:10.277Z,5.75
2022-09-18T12:32:43.218Z,2.00
2022-09-18T12:35:16.280Z,4.00
2022-09-18T12:38:01.617Z,4.00
2022-09-18T12:40:51.808Z,3.00
2022-09-18T12:43:34.760Z,3.25
2022-09-18T12:46:16.526Z,3.75
2022-09-18T12:48:59.216Z,3.25
2022-09-18T12:51:41.874Z,3.00
2022-09-18T12:54:18.298Z,3.00
2022-09-18T12:56:57.304Z,2.75
2022-09-18T12:59:28.539Z,0.75
2022-09-18T13:02:19.298Z,1.50
2022-09-18T13:04:52.288Z,1.25
2022-09-18T13:07:26.669Z,0.75
2022-09-18T13:10:14.768Z,1.75
2022-09-18T13:12:54.253Z,1.00
2022-09-18T13:15:27.271Z,0.75
2022-09-18T13:18:17.619Z,1.00
2022-09-18T13:20:48.069Z,2.50
2022-09-18T13:23:29.283Z,0.25
2022-09-18T13:26:01.002Z,2.00
2022-09-18T13:28:35.086Z,2.75
2022-09-18T13:31:17.313Z,2.00
2022-09-18T13:34:01.779Z,1.50
2022-09-18T13:36:34.660Z,5.25
2022-09-18T13:39:09.473Z,2.25
2022-09-18T13:41:47.381Z,3.00
2022-09-18T13:44:24.896Z,2.00
2022-09-18T13:46:59.654Z,2.50
2022-09-18T13:49:32.489Z,2.00
2022-09-18T13:52:22.350Z,1.75
2022-09-18T13:55:10.552Z,2.00
2022-09-18T13:57:42.159Z,0.50
2022-09-18T14:00:24.267Z,3.00
2022-09-18T14:03:15.819Z,0.75
2022-09-18T14:05:46.215Z,0.75
2022-09-18T14:08:35.435Z,0.50
2022-09-18T14:11:16.235Z,1.00
2022-09-18T14:13:55.660Z,1.00
2022-09-18T14:16:45.376Z,1.00
2022-09-18T14:19:29.239Z,0.50
2022-09-18T14:21:59.893Z,1.00
2022-09-18T14:24:59.659Z,1.00
2022-09-18T14:27:36.764Z,1.00
2022-09-18T14:30:28.217Z,2.50
2022-09-18T14:33:11.157Z,1.25
2022-09-18T14:36:01.904Z,0.50
2022-09-18T14:38:36.149Z,1.50
2022-09-18T14:41:10.970Z,3.50
2022-09-18T14:43:42.056Z,1.50
2022-09-18T14:46:19.630Z,1.25
2022-09-18T14:48:50.812Z,0.00
2022-09-18T14:51:23.415Z,1.75
2022-09-18T14:53:58.733Z,0.00
2022-09-18T14:56:35.670Z,0.25
2022-09-18T14:59:07.316Z,0.50
2022-09-18T15:01:38.785Z,1.75
2022-09-18T15:04:11.056Z,0.00
2022-09-18T15:06:45.549Z,0.00
2022-09-18T15:09:18.596Z,1.00
2022-09-18T15:12:02.353Z,1.00
2022-09-18T15:14:44.026Z,0.00
2022-09-18T15:17:26.352Z,0.00
2022-09-18T15:19:59.268Z,1.00
2022-09-18T15:22:31.053Z,0.00
2022-09-18T15:25:03.385Z,0.25
2022-09-18T15:27:35.323Z,0.25
2022-09-18T15:30:25.348Z,1.00
2022-09-18T15:33:06.721Z,1.00
2022-09-18T15:35:39.280Z,0.50
2022-09-18T15:38:18.236Z,2.00
2022-09-18T15:40:48.915Z,0.75
2022-09-18T15:43:36.774Z,1.00
2022-09-18T15:46:10.557Z,0.00
2022-09-18T15:48:45.648Z,0.00
2022-09-18T15:51:16.321Z,0.50
2022-09-18T15:54:04.103Z,1.00
2022-09-18T15:56:38.195Z,0.75
2022-09-18T15:59:30.882Z,0.00
2022-09-18T16:02:01.956Z,1.00
2022-09-18T16:04:35.665Z,1.00
2022-09-18T16:07:22.854Z,1.25
2022-09-18T16:09:53.328Z,0.00
2022-09-18T16:12:32.247Z,1.00
2022-09-18T16:15:15.329Z,1.00
2022-09-18T16:17:48.137Z,2.75
2022-09-18T16:20:24.606Z,1.00
2022-09-18T16:22:56.415Z,1.25
2022-09-18T16:25:28.435Z,1.25
2022-09-18T16:28:00.547Z,2.75
2022-09-18T16:30:31.184Z,2.00
2022-09-18T16:33:07.384Z,2.00
2022-09-18T16:35:37.822Z,1.50
2022-09-18T16:38:07.484Z,2.00
2022-09-18T16:40:38.542Z,1.00
2022-09-18T16:43:08.502Z,3.00
2022-09-18T16:45:39.750Z,4.25
2022-09-18T16:48:09.436Z,4.75
2022-09-18T16:50:40.384Z,2.00
2022-09-18T16:53:10.546Z,2.50
2022-09-18T16:55:43.412Z,2.75
2022-09-18T16:58:13.393Z,1.75
2022-09-18T17:00:43.126Z,2.75
2022-09-18T17:03:13.399Z,2.25
2022-09-18T17:05:45.371Z,1.25
2022-09-18T17:08:15.351Z,1.50
2022-09-18T17:10:45.406Z,2.00
2022-09-18T17:13:15.405Z,0.50
2022-09-18T17:15:44.801Z,0.75
2022-09-18T17:18:14.158Z,1.00
2022-09-18T17:20:43.672Z,1.00
2022-09-18T17:23:13.109Z,0.00
2022-09-18T17:25:42.625Z,1.00
2022-09-18T17:28:13.305Z,0.25
2022-09-18T17:30:45.895Z,0.00
2022-09-18T17:33:19.782Z,0.00
2022-09-18T17:35:49.736Z,0.00
2022-09-18T17:38:19.179Z,0.75
2022-09-18T17:40:57.129Z,0.00
2022-09-18T17:43:26.749Z,3.00
2022-09-18T17:46:00.130Z,0.00
2022-09-18T17:48:30.515Z,1.00
2022-09-18T17:51:00.455Z,1.00
2022-09-18T17:53:30.180Z,1.00
2022-09-18T17:56:01.306Z,0.00
2022-09-18T17:58:32.189Z,0.00
2022-09-18T18:01:01.722Z,0.00
2022-09-18T18:03:31.312Z,1.75
2022-09-18T18:06:01.473Z,0.00
2022-09-18T18:08:31.055Z,2.00
2022-09-18T18:11:04.897Z,5.25
2022-09-18T18:13:34.511Z,3.00
2022-09-18T18:16:08.253Z,5.75
2022-09-18T18:18:38.402Z,2.50
2022-09-18T18:21:08.631Z,3.50
2022-09-18T18:23:41.401Z,8.00
2022-09-18T18:26:11.581Z,2.25
2022-09-18T18:28:41.837Z,3.50
2022-09-18T18:31:15.834Z,4.75
2022-09-18T18:33:45.590Z,3.75
2022-09-18T18:36:16.474Z,2.75
2022-09-18T18:38:46.953Z,4.25
2022-09-18T18:41:17.449Z,3.00
2022-09-18T18:43:47.030Z,2.25
2022-09-18T18:46:16.839Z,3.00
2022-09-18T18:48:46.479Z,5.50
2022-09-18T18:51:16.829Z,3.50
2022-09-18T18:53:47.205Z,4.00
2022-09-18T18:56:17.538Z,3.00
2022-09-18T18:58:47.745Z,3.75
2022-09-18T19:01:18.956Z,3.50
2022-09-18T19:03:53.213Z,2.75
2022-09-18T19:06:24.957Z,2.00
2022-09-18T19:08:58.548Z,2.00
2022-09-18T19:11:28.282Z,0.25
2022-09-18T19:13:58.465Z,2.00
2022-09-18T19:16:29.521Z,2.00
2022-09-18T19:19:04.942Z,2.50
2022-09-18T19:21:34.365Z,0.50
2022-09-18T19:24:04.532Z,3.75
2022-09-18T19:26:33.844Z,2.75
2022-09-18T19:29:06.031Z,0.75
2022-09-18T19:31:35.939Z,0.00
2022-09-18T19:34:05.822Z,2.00
2022-09-18T19:36:35.361Z,0.75
2022-09-18T19:39:06.784Z,1.00
2022-09-18T19:41:36.894Z,1.25
2022-09-18T19:44:09.736Z,0.00
2022-09-18T19:46:39.185Z,0.50
2022-09-18T19:49:14.344Z,0.50
2022-09-18T19:51:43.610Z,0.50
2022-09-18T19:54:13.076Z,0.50
2022-09-18T19:56:51.205Z,0.00
2022-09-18T19:59:20.689Z,0.50
2022-09-18T20:01:50.118Z,0.50
2022-09-18T20:04:19.541Z,0.00
2022-09-18T20:06:48.800Z,1.00
2022-09-18T20:09:18.054Z,1.00
2022-09-18T20:11:48.358Z,0.00
2022-09-18T20:14:18.018Z,1.00
2022-09-18T20:16:47.286Z,0.75
2022-09-18T20:19:16.546Z,1.00
2022-09-18T20:21:45.810Z,0.00
2022-09-18T20:24:15.088Z,0.00
2022-09-18T20:26:44.900Z,0.00
2022-09-18T20:29:17.448Z,1.25
2022-09-18T20:31:47.179Z,1.00
2022-09-18T20:34:16.703Z,0.75
2022-09-18T20:36:48.058Z,6.25
2022-09-18T20:39:20.565Z,18.00
2022-09-18T20:41:51.362Z,17.75
2022-09-18T20:44:23.206Z,11.50
2022-09-18T20:46:57.843Z,15.00
2022-09-18T20:49:27.826Z,20.75
2022-09-18T20:51:58.154Z,16.50
2022-09-18T20:54:27.948Z,12.00
2022-09-18T20:57:01.575Z,5.00
2022-09-18T20:59:32.542Z,6.00
2022-09-18T21:02:02.417Z,3.50
2022-09-18T21:04:31.839Z,4.25
2022-09-18T21:07:02.905Z,1.00
2022-09-18T21:09:33.930Z,4.25
2022-09-18T21:12:03.667Z,2.00
2022-09-18T21:14:32.934Z,1.00
2022-09-18T21:17:02.409Z,1.50
2022-09-18T21:19:31.736Z,2.00
2022-09-18T21:22:01.121Z,3.00
2022-09-18T21:24:31.990Z,2.00
2022-09-18T21:27:01.514Z,2.50
2022-09-18T21:29:31.225Z,1.75
2022-09-18T21:32:01.498Z,2.00
2022-09-18T21:34:32.420Z,1.00
2022-09-18T21:37:06.505Z,3.00
2022-09-18T21:39:36.773Z,1.00
2022-09-18T21:42:10.750Z,1.00
2022-09-18T21:44:40.423Z,2.00
2022-09-18T21:47:12.076Z,2.00
2022-09-18T21:49:41.445Z,1.75
2022-09-18T21:52:11.039Z,2.50
2022-09-18T21:54:40.336Z,3.00
2022-09-18T21:57:11.728Z,2.00
2022-09-18T21:59:41.300Z,2.00
2022-09-18T22:02:11.819Z,3.50
2022-09-18T22:04:42.281Z,3.25
2022-09-18T22:07:12.894Z,2.00
2022-09-18T22:09:43.549Z,1.00
2022-09-18T22:12:14.194Z,2.50
2022-09-18T22:14:43.613Z,3.00
2022-09-18T22:17:12.913Z,4.25
2022-09-18T22:19:43.160Z,5.50
2022-09-18T22:22:12.597Z,4.75
2022-09-18T22:24:41.862Z,4.25
2022-09-18T22:27:11.942Z,1.00
2022-09-18T22:29:43.071Z,2.00
2022-09-18T22:32:12.510Z,1.75
2022-09-18T22:34:42.829Z,1.00
2022-09-18T22:37:12.813Z,2.50
2022-09-18T22:39:42.070Z,1.00
2022-09-18T22:42:11.343Z,3.75
2022-09-18T22:44:41.179Z,4.25
2022-09-18T22:47:10.839Z,6.75
2022-09-18T22:49:40.092Z,3.50
2022-09-18T22:52:09.368Z,2.00
2022-09-18T22:54:38.666Z,1.75
2022-09-18T22:57:08.065Z,1.00
2022-09-18T22:59:37.406Z,2.00
2022-09-18T23:02:09.186Z,2.25
2022-09-18T23:04:38.965Z,1.50
2022-09-18T23:07:08.685Z,0.50
2022-09-18T23:09:40.045Z,3.00
2022-09-18T23:12:09.654Z,0.75
2022-09-18T23:14:38.988Z,1.00
2022-09-18T23:17:09.307Z,3.50
2022-09-18T23:19:38.575Z,4.00
2022-09-18T23:22:12.074Z,2.50
2022-09-18T23:24:42.366Z,3.00
2022-09-18T23:27:11.664Z,2.75
2022-09-18T23:29:42.321Z,1.75
2022-09-18T23:32:11.574Z,3.00
2022-09-18T23:34:41.459Z,3.75
2022-09-18T23:37:10.776Z,4.00
2022-09-18T23:39:40.278Z,1.25
2022-09-18T23:42:10.178Z,2.00
2022-09-18T23:44:39.887Z,1.25
2022-09-18T23:47:09.218Z,3.00
2022-09-18T23:49:40.268Z,0.00
2022-09-18T23:52:09.724Z,1.25
2022-09-18T23:54:39.047Z,2.75
2022-09-18T23:57:08.503Z,5.75
2022-09-18T23:59:37.825Z,1.00
